首页
METAR-TAF:

METAR-TAF

机场 :

科羅爾, 巴伯尔道布岛, 帛琉

羅曼·莫圖國際機場

纬度: 07-22N, 经度: 134-32E, 海拔: 54米

当前天气观测

该预报发布于27分钟前的12:50 UTC
静风
温度 25°C
湿度 94%
气压 1008 hPa
能見度: 24.1公里
多云层高于1600英尺
多云层高于30000英尺

METAR: PTRO 171250Z 00000KT 15SM BKN016 BKN300 25/24 A2977

时间: 22:17 (13:17 UTC)

预报

该预报发布于1小时和55分钟前的11:22 UTC
预报有效从17日的 12点(UTC)到 18日的 12点(UTC)
风速8节,风向
能見度: 10公里
散云层高于1600英尺
多云层高于12000英尺
多云层高于30000英尺
附近有阵雨

TAF: PTRO 171122Z 1712/1812 08008KT P6SM VCSH SCT016 BKN120 BKN300

超过4000个机场的气象观测和天气预报(METAR&TAF报告)。

可查询的气象台以黄色和红色小点在地图上表示。

将鼠标移到小点上方,可查看气象台名称。

然后点击查看天气观测和预报。

如需切换地图:点击带黑十字的绿色按钮放大地图;点击带横线的绿色按钮缩小地图;或者点击绿色箭头查看邻近地区的地图。


METAR-TAF: